Time;durP1;ratioP1;P1;durP2;ratioP2;P2;SDS_P1;SDS_P2;PMS_P1;PMS_P2;Temp;Humidity;BMP_temperature;BMP_pressure;BME280_temperature;BME280_humidity;BME280_pressure;Samples;Min_cycle;Max_cycle;Signal;HPM_P1;HPM_P2
2023/03/12 00:01:32;;;;;;;8.50;3.97;;;;;;;;;;5014610;28;20041;-77
2023/03/12 00:04:03;;;;;;;13.10;4.63;;;;;;;;;;5040096;28;20295;-77
2023/03/12 00:06:29;;;;;;;12.20;4.80;;;;;;;;;;5033868;28;20359;-77
2023/03/12 00:08:55;;;;;;;9.60;4.17;;;;;;;;;;5014605;28;20275;-77
2023/03/12 00:11:24;;;;;;;14.60;5.30;;;;;;;;;;5034493;28;20268;-77
2023/03/12 00:13:50;;;;;;;10.47;4.00;;;;;;;;;;5032621;28;20045;-77
2023/03/12 00:16:16;;;;;;;7.63;4.30;;;;;;;;;;5029968;28;20264;-77
2023/03/12 00:18:43;;;;;;;11.03;4.40;;;;;;;;;;5035239;28;20763;-76
2023/03/12 00:21:09;;;;;;;13.20;4.27;;;;;;;;;;5032782;28;20048;-77
2023/03/12 00:23:36;;;;;;;11.73;4.73;;;;;;;;;;5028302;28;20379;-77
2023/03/12 00:26:03;;;;;;;10.63;4.00;;;;;;;;;;5009235;28;20311;-77
2023/03/12 00:28:31;;;;;;;10.93;4.47;;;;;;;;;;5034656;28;20275;-77
2023/03/12 00:30:57;;;;;;;9.17;4.80;;;;;;;;;;5017943;28;20264;-77
2023/03/12 00:33:29;;;;;;;8.33;4.80;;;;;;;;;;5031539;28;20273;-76
2023/03/12 00:35:55;;;;;;;15.73;4.43;;;;;;;;;;5013811;28;20050;-77
2023/03/12 00:38:22;;;;;;;9.83;4.70;;;;;;;;;;5018451;28;20268;-76
2023/03/12 00:40:48;;;;;;;13.30;4.57;;;;;;;;;;5011584;28;20281;-77
2023/03/12 00:43:14;;;;;;;8.27;4.50;;;;;;;;;;5020203;28;20346;-75
2023/03/12 00:45:40;;;;;;;9.93;4.47;;;;;;;;;;5031731;28;20037;-77
2023/03/12 00:48:06;;;;;;;11.60;4.90;;;;;;;;;;5013121;28;20759;-77
2023/03/12 00:50:32;;;;;;;10.47;4.70;;;;;;;;;;5018666;28;20075;-77
2023/03/12 00:52:58;;;;;;;8.90;5.13;;;;;;;;;;5006257;28;20096;-77
2023/03/12 00:55:24;;;;;;;10.87;4.33;;;;;;;;;;5024274;28;20042;-76
2023/03/12 00:57:50;;;;;;;10.33;4.50;;;;;;;;;;5007724;28;20132;-76
2023/03/12 01:00:16;;;;;;;13.07;5.63;;;;;;;;;;5011636;28;20033;-75
2023/03/12 01:02:44;;;;;;;11.77;5.53;;;;;;;;;;5007577;28;20326;-77
2023/03/12 01:05:14;;;;;;;8.77;4.30;;;;;;;;;;5022089;28;20636;-76
2023/03/12 01:07:40;;;;;;;15.87;5.63;;;;;;;;;;5011749;28;20268;-77
2023/03/12 01:10:07;;;;;;;16.00;6.13;;;;;;;;;;5025999;28;20763;-77
2023/03/12 01:12:33;;;;;;;8.93;4.50;;;;;;;;;;5025826;28;21241;-75
2023/03/12 01:15:01;;;;;;;14.53;5.20;;;;;;;;;;5010690;28;20362;-77
2023/03/12 01:17:29;;;;;;;9.10;4.77;;;;;;;;;;5008082;28;20284;-75
2023/03/12 01:19:55;;;;;;;11.87;5.40;;;;;;;;;;5006903;28;20276;-75
2023/03/12 01:22:22;;;;;;;10.80;4.70;;;;;;;;;;5007129;28;20306;-77
2023/03/12 01:24:48;;;;;;;14.40;5.60;;;;;;;;;;5025598;28;20291;-77
2023/03/12 01:27:13;;;;;;;15.23;5.40;;;;;;;;;;5010179;28;20272;-77
2023/03/12 01:29:42;;;;;;;15.23;5.20;;;;;;;;;;5021981;28;20032;-77
2023/03/12 01:32:08;;;;;;;10.97;4.63;;;;;;;;;;5010358;28;20026;-77
2023/03/12 01:34:34;;;;;;;7.90;3.87;;;;;;;;;;5025878;28;20352;-76
2023/03/12 01:37:00;;;;;;;14.80;4.70;;;;;;;;;;5005379;28;20370;-77
2023/03/12 01:39:26;;;;;;;12.87;5.00;;;;;;;;;;5010183;28;20025;-75
2023/03/12 01:41:52;;;;;;;11.57;5.10;;;;;;;;;;5006640;28;20763;-77
2023/03/12 01:44:18;;;;;;;10.87;4.63;;;;;;;;;;5007844;28;20304;-76
2023/03/12 01:46:45;;;;;;;10.03;4.63;;;;;;;;;;5010342;28;20030;-76
2023/03/12 01:49:17;;;;;;;11.53;4.57;;;;;;;;;;5020857;28;20053;-75
2023/03/12 01:51:49;;;;;;;13.35;4.95;;;;;;;;;;5024436;28;20314;-76
2023/03/12 01:54:19;;;;;;;10.23;4.70;;;;;;;;;;5024925;28;20458;-77
2023/03/12 01:56:46;;;;;;;10.97;4.70;;;;;;;;;;5023391;28;20068;-76
2023/03/12 01:59:15;;;;;;;13.83;4.10;;;;;;;;;;5010269;28;20294;-76
2023/03/12 02:01:41;;;;;;;15.23;4.70;;;;;;;;;;5021794;28;20288;-77
2023/03/12 02:04:07;;;;;;;10.40;4.50;;;;;;;;;;5003977;28;20312;-77
2023/03/12 02:06:39;;;;;;;9.47;4.50;;;;;;;;;;5010541;28;20304;-76
2023/03/12 02:09:06;;;;;;;13.15;4.45;;;;;;;;;;5022846;28;20287;-76
2023/03/12 02:11:35;;;;;;;12.73;4.50;;;;;;;;;;5025777;28;20844;-76
2023/03/12 02:14:01;;;;;;;9.50;4.63;;;;;;;;;;5012894;28;20272;-77
2023/03/12 02:16:27;;;;;;;9.87;4.27;;;;;;;;;;5010669;28;20288;-77
2023/03/12 02:18:54;;;;;;;16.57;4.10;;;;;;;;;;5024613;28;20338;-76
2023/03/12 02:21:22;;;;;;;8.10;4.10;;;;;;;;;;5024657;28;20029;-76
2023/03/12 02:23:54;;;;;;;8.97;4.03;;;;;;;;;;5009822;28;20288;-77
2023/03/12 02:26:21;;;;;;;16.45;4.43;;;;;;;;;;5005668;28;20288;-76
2023/03/12 02:28:47;;;;;;;9.77;3.80;;;;;;;;;;5006570;28;20036;-76
2023/03/12 02:31:15;;;;;;;8.27;3.83;;;;;;;;;;5004138;28;20268;-76
2023/03/12 02:33:41;;;;;;;13.17;4.37;;;;;;;;;;5023878;28;20271;-75
2023/03/12 02:36:10;;;;;;;5.67;3.03;;;;;;;;;;5021699;28;20733;-76
2023/03/12 02:38:38;;;;;;;9.53;3.70;;;;;;;;;;5021856;28;20286;-77
2023/03/12 02:41:24;;;;;;;11.80;3.60;;;;;;;;;;5023259;28;20276;-77
2023/03/12 02:44:02;;;;;;;11.07;3.57;;;;;;;;;;5013346;28;20346;-76
2023/03/12 02:46:32;;;;;;;9.37;4.17;;;;;;;;;;5024872;28;20385;-76
2023/03/12 02:48:58;;;;;;;9.47;3.47;;;;;;;;;;5029294;28;21114;-77
2023/03/12 02:51:24;;;;;;;7.50;3.33;;;;;;;;;;5015998;28;20284;-77
2023/03/12 02:53:53;;;;;;;13.30;3.43;;;;;;;;;;5033143;28;20659;-76
2023/03/12 02:56:20;;;;;;;7.63;3.27;;;;;;;;;;5020324;28;20477;-76
2023/03/12 02:58:48;;;;;;;9.13;3.47;;;;;;;;;;5007303;28;20347;-77
2023/03/12 03:01:14;;;;;;;6.97;3.60;;;;;;;;;;5031450;28;20648;-77
2023/03/12 03:03:40;;;;;;;7.43;3.30;;;;;;;;;;5020104;28;20288;-75
2023/03/12 03:06:06;;;;;;;6.77;3.23;;;;;;;;;;5020176;28;20025;-77
2023/03/12 03:08:32;;;;;;;7.93;3.13;;;;;;;;;;5020067;28;20025;-77
2023/03/12 03:11:01;;;;;;;10.03;3.07;;;;;;;;;;5034373;28;20327;-77
2023/03/12 03:13:27;;;;;;;6.83;2.80;;;;;;;;;;5012406;28;20033;-77
2023/03/12 03:15:56;;;;;;;10.97;4.93;;;;;;;;;;5019636;28;20299;-77
2023/03/12 03:18:24;;;;;;;9.50;3.60;;;;;;;;;;5027887;28;20029;-77
2023/03/12 03:20:58;;;;;;;8.33;3.17;;;;;;;;;;5018349;28;20276;-76
2023/03/12 03:23:24;;;;;;;7.73;3.73;;;;;;;;;;5019421;28;20748;-77
2023/03/12 03:25:51;;;;;;;7.73;3.63;;;;;;;;;;5027981;28;20367;-76
2023/03/12 03:28:17;;;;;;;9.10;3.07;;;;;;;;;;5019307;28;20265;-77
2023/03/12 03:30:43;;;;;;;10.67;3.53;;;;;;;;;;5018426;28;20275;-77
2023/03/12 03:33:11;;;;;;;6.77;2.97;;;;;;;;;;5032663;28;20269;-75
2023/03/12 03:35:37;;;;;;;8.20;3.00;;;;;;;;;;5012994;28;20064;-77
2023/03/12 03:38:03;;;;;;;6.97;2.37;;;;;;;;;;5018959;28;20708;-77
2023/03/12 03:40:30;;;;;;;9.03;2.80;;;;;;;;;;5023933;28;20047;-77
2023/03/12 03:42:56;;;;;;;7.40;2.80;;;;;;;;;;5015524;28;20025;-77
2023/03/12 03:45:21;;;;;;;6.90;2.70;;;;;;;;;;5017394;28;20375;-77
2023/03/12 03:47:47;;;;;;;7.10;2.80;;;;;;;;;;5018422;28;20032;-77
2023/03/12 03:50:16;;;;;;;6.33;2.93;;;;;;;;;;5031979;28;20117;-77
2023/03/12 03:52:42;;;;;;;11.90;2.90;;;;;;;;;;5018439;28;20034;-77
2023/03/12 03:55:08;;;;;;;6.60;2.83;;;;;;;;;;5027986;28;20689;-77
2023/03/12 03:57:34;;;;;;;7.67;3.23;;;;;;;;;;5031979;28;20030;-77
2023/03/12 04:00:08;;;;;;;9.10;3.10;;;;;;;;;;5013248;28;20744;-77
2023/03/12 04:02:34;;;;;;;5.80;2.70;;;;;;;;;;5005836;28;20030;-77
2023/03/12 04:05:00;;;;;;;10.07;2.90;;;;;;;;;;5019765;28;20287;-75
2023/03/12 04:07:27;;;;;;;7.33;2.73;;;;;;;;;;5018702;28;20378;-77
2023/03/12 04:09:57;;;;;;;7.17;3.20;;;;;;;;;;5016905;28;20342;-76
2023/03/12 04:12:26;;;;;;;8.77;2.30;;;;;;;;;;5021655;28;20265;-76
2023/03/12 04:14:52;;;;;;;4.67;2.50;;;;;;;;;;5017132;28;20309;-77
2023/03/12 04:17:19;;;;;;;5.80;2.60;;;;;;;;;;5016910;28;20353;-77
2023/03/12 04:19:45;;;;;;;7.30;3.67;;;;;;;;;;5030062;28;20279;-76
2023/03/12 04:22:11;;;;;;;12.57;2.60;;;;;;;;;;5007741;28;20268;-76
2023/03/12 04:24:37;;;;;;;9.13;2.43;;;;;;;;;;5017209;28;20268;-77
2023/03/12 04:27:03;;;;;;;5.77;2.30;;;;;;;;;;5020501;28;20348;-77
2023/03/12 04:29:28;;;;;;;6.90;3.00;;;;;;;;;;5020455;28;20128;-77
2023/03/12 04:31:57;;;;;;;8.70;2.70;;;;;;;;;;5018262;28;20021;-77
2023/03/12 04:34:23;;;;;;;10.30;2.73;;;;;;;;;;5031383;28;20060;-77
2023/03/12 04:36:49;;;;;;;8.67;2.63;;;;;;;;;;5035388;28;20322;-77
2023/03/12 04:39:19;;;;;;;9.53;3.17;;;;;;;;;;5027537;28;20060;-76
2023/03/12 04:41:45;;;;;;;9.40;3.17;;;;;;;;;;5034728;28;20272;-77
2023/03/12 04:44:11;;;;;;;10.33;3.70;;;;;;;;;;5032295;28;20322;-77
2023/03/12 04:46:37;;;;;;;6.17;2.93;;;;;;;;;;5011961;28;20273;-77
2023/03/12 04:49:04;;;;;;;8.33;3.13;;;;;;;;;;5021706;28;20319;-77
2023/03/12 04:51:31;;;;;;;7.10;2.20;;;;;;;;;;5032605;28;20735;-77
2023/03/12 04:53:57;;;;;;;10.07;2.97;;;;;;;;;;5017715;28;20272;-77
2023/03/12 04:56:25;;;;;;;7.03;2.80;;;;;;;;;;5028102;28;20711;-76
2023/03/12 04:58:52;;;;;;;8.00;2.33;;;;;;;;;;5018119;28;20268;-77
2023/03/12 05:01:23;;;;;;;7.10;3.17;;;;;;;;;;5015011;28;20272;-77
2023/03/12 05:03:49;;;;;;;7.87;2.63;;;;;;;;;;5016192;28;20328;-77
2023/03/12 05:06:15;;;;;;;7.13;2.57;;;;;;;;;;5028678;28;20303;-77
2023/03/12 05:08:41;;;;;;;9.70;2.90;;;;;;;;;;5026446;28;20457;-76
2023/03/12 05:11:07;;;;;;;10.30;3.00;;;;;;;;;;5018005;28;20278;-77
2023/03/12 05:13:33;;;;;;;7.03;2.93;;;;;;;;;;5015151;28;20264;-77
2023/03/12 05:15:59;;;;;;;11.03;3.07;;;;;;;;;;5034441;28;20041;-77
2023/03/12 05:18:25;;;;;;;7.20;2.83;;;;;;;;;;5016408;28;20278;-77
2023/03/12 05:21:01;;;;;;;11.43;3.50;;;;;;;;;;5017736;28;20272;-76
2023/03/12 05:23:27;;;;;;;8.37;3.17;;;;;;;;;;5031341;28;20337;-76
2023/03/12 05:25:53;;;;;;;6.50;3.27;;;;;;;;;;5021419;28;20324;-76
2023/03/12 05:28:19;;;;;;;6.70;3.10;;;;;;;;;;5028461;28;20256;-77
2023/03/12 05:30:45;;;;;;;7.57;3.23;;;;;;;;;;5021411;28;20275;-77
2023/03/12 05:33:11;;;;;;;9.37;3.03;;;;;;;;;;5020139;28;20265;-76
2023/03/12 05:35:37;;;;;;;6.00;2.77;;;;;;;;;;5026146;28;20261;-77
2023/03/12 05:38:03;;;;;;;10.13;3.10;;;;;;;;;;5016629;28;20292;-77
2023/03/12 05:40:29;;;;;;;8.43;3.33;;;;;;;;;;5012886;28;20442;-75
2023/03/12 05:42:55;;;;;;;10.07;3.83;;;;;;;;;;5017183;28;20136;-77
2023/03/12 05:45:21;;;;;;;11.97;3.20;;;;;;;;;;5024591;28;20360;-76
2023/03/12 05:47:47;;;;;;;7.70;3.57;;;;;;;;;;5030531;28;20352;-77
2023/03/12 05:50:15;;;;;;;8.77;3.27;;;;;;;;;;5000695;28;20021;-74
2023/03/12 05:52:41;;;;;;;10.70;3.40;;;;;;;;;;5035022;28;20126;-77
2023/03/12 05:55:10;;;;;;;8.87;3.77;;;;;;;;;;5029690;28;20265;-77
2023/03/12 05:57:38;;;;;;;9.20;3.97;;;;;;;;;;5030531;28;20272;-77
2023/03/12 06:00:04;;;;;;;10.27;3.40;;;;;;;;;;5017276;28;20295;-77
2023/03/12 06:02:30;;;;;;;11.10;3.47;;;;;;;;;;5033987;28;20373;-77
2023/03/12 06:04:57;;;;;;;8.97;3.30;;;;;;;;;;5023282;28;20264;-76
2023/03/12 06:07:23;;;;;;;7.23;3.37;;;;;;;;;;5020002;28;20276;-77
2023/03/12 06:09:49;;;;;;;12.73;4.10;;;;;;;;;;5007800;28;20287;-75
2023/03/12 06:12:15;;;;;;;10.43;3.50;;;;;;;;;;5014824;28;20709;-77
2023/03/12 06:14:41;;;;;;;10.03;3.10;;;;;;;;;;5014989;28;20264;-76
2023/03/12 06:17:07;;;;;;;8.93;3.20;;;;;;;;;;5021508;28;20030;-74
2023/03/12 06:19:33;;;;;;;10.10;3.47;;;;;;;;;;5030794;28;20281;-77
2023/03/12 06:21:59;;;;;;;9.47;3.50;;;;;;;;;;5021354;28;20748;-77
2023/03/12 06:24:25;;;;;;;17.50;3.27;;;;;;;;;;5031364;28;20034;-76
2023/03/12 06:26:51;;;;;;;5.83;3.13;;;;;;;;;;5016150;28;20288;-76
2023/03/12 06:29:17;;;;;;;11.23;2.63;;;;;;;;;;5024123;28;20041;-76
2023/03/12 06:31:43;;;;;;;6.60;2.80;;;;;;;;;;5031780;28;20103;-77
2023/03/12 06:34:09;;;;;;;6.93;3.20;;;;;;;;;;5008525;28;20819;-76
2023/03/12 06:36:35;;;;;;;7.27;2.87;;;;;;;;;;5014866;28;20030;-77
2023/03/12 06:39:05;;;;;;;9.33;3.30;;;;;;;;;;5006995;28;20280;-77
2023/03/12 06:41:31;;;;;;;7.00;3.67;;;;;;;;;;5010489;28;20280;-77
2023/03/12 06:44:00;;;;;;;11.53;3.73;;;;;;;;;;5024204;28;20287;-77
2023/03/12 06:46:26;;;;;;;6.83;2.90;;;;;;;;;;5037844;28;20326;-76
2023/03/12 06:48:55;;;;;;;6.87;3.20;;;;;;;;;;5027568;28;20288;-76
2023/03/12 06:51:21;;;;;;;9.63;3.43;;;;;;;;;;5012687;28;20398;-76
2023/03/12 06:53:47;;;;;;;6.00;3.33;;;;;;;;;;5013889;28;20422;-76
2023/03/12 06:56:13;;;;;;;6.03;3.00;;;;;;;;;;5013552;28;20034;-77
2023/03/12 06:58:39;;;;;;;9.23;3.07;;;;;;;;;;5014497;28;20284;-76
2023/03/12 07:01:08;;;;;;;10.27;3.90;;;;;;;;;;5013703;28;20338;-77
2023/03/12 07:03:34;;;;;;;9.20;3.47;;;;;;;;;;5010129;28;20087;-76
2023/03/12 07:06:05;;;;;;;4.17;2.80;;;;;;;;;;5013937;28;20026;-75
2023/03/12 07:08:31;;;;;;;8.80;3.40;;;;;;;;;;5014878;28;20300;-76
2023/03/12 07:10:59;;;;;;;12.53;3.67;;;;;;;;;;5026437;28;20331;-76
2023/03/12 07:13:25;;;;;;;8.37;3.23;;;;;;;;;;5014107;28;20045;-74
2023/03/12 07:15:53;;;;;;;7.37;3.27;;;;;;;;;;5027050;28;20331;-76
2023/03/12 07:18:19;;;;;;;8.10;3.00;;;;;;;;;;5029035;28;20041;-75
2023/03/12 07:20:46;;;;;;;8.40;4.00;;;;;;;;;;5026753;28;20358;-76
2023/03/12 07:23:12;;;;;;;8.07;2.97;;;;;;;;;;5025857;28;20037;-77
2023/03/12 07:25:39;;;;;;;10.20;4.03;;;;;;;;;;5013489;28;20283;-76
2023/03/12 07:28:05;;;;;;;8.90;3.60;;;;;;;;;;5013385;28;20286;-77
2023/03/12 07:30:32;;;;;;;6.63;3.00;;;;;;;;;;5027315;28;20022;-76
2023/03/12 07:33:08;;;;;;;8.03;3.20;;;;;;;;;;5025565;28;20675;-76
2023/03/12 07:35:35;;;;;;;6.93;3.60;;;;;;;;;;5026878;28;20284;-75
2023/03/12 07:38:03;;;;;;;9.93;3.60;;;;;;;;;;5027814;28;20034;-77
2023/03/12 07:40:30;;;;;;;8.63;3.23;;;;;;;;;;5009940;28;20355;-76
2023/03/12 07:42:56;;;;;;;11.83;3.73;;;;;;;;;;5008685;28;20644;-76
2023/03/12 07:45:23;;;;;;;13.07;2.90;;;;;;;;;;5025310;28;20048;-74
2023/03/12 07:47:49;;;;;;;9.23;2.77;;;;;;;;;;5012619;28;20025;-76
2023/03/12 07:50:18;;;;;;;8.40;3.23;;;;;;;;;;5015596;28;20061;-76
2023/03/12 07:52:44;;;;;;;7.83;3.47;;;;;;;;;;5012365;28;20128;-74
2023/03/12 07:55:10;;;;;;;7.23;2.90;;;;;;;;;;5008799;28;20442;-77
2023/03/12 07:57:37;;;;;;;13.07;3.23;;;;;;;;;;5026689;28;20060;-76
2023/03/12 08:00:06;;;;;;;13.90;3.23;;;;;;;;;;5012262;28;20896;-76
2023/03/12 08:02:33;;;;;;;7.17;3.23;;;;;;;;;;5009106;28;20041;-75
2023/03/12 08:05:01;;;;;;;7.20;2.93;;;;;;;;;;5012120;28;20060;-76
2023/03/12 08:07:31;;;;;;;7.33;3.00;;;;;;;;;;5009075;28;20044;-76
2023/03/12 08:09:57;;;;;;;14.90;3.20;;;;;;;;;;5024019;28;20124;-74
2023/03/12 08:12:23;;;;;;;6.23;2.60;;;;;;;;;;5024809;28;20053;-76
2023/03/12 08:14:49;;;;;;;6.20;2.63;;;;;;;;;;5027187;28;20061;-76
2023/03/12 08:17:16;;;;;;;6.90;2.60;;;;;;;;;;5017554;28;20025;-76
2023/03/12 08:19:42;;;;;;;13.77;3.57;;;;;;;;;;5025445;28;20409;-75
2023/03/12 08:22:08;;;;;;;6.37;2.93;;;;;;;;;;5026502;28;20033;-76
2023/03/12 08:24:34;;;;;;;8.07;3.13;;;;;;;;;;5024779;28;20030;-76
2023/03/12 08:27:00;;;;;;;9.63;3.47;;;;;;;;;;5007783;28;21006;-76
2023/03/12 08:29:26;;;;;;;10.83;3.80;;;;;;;;;;5026933;28;20441;-76
2023/03/12 08:31:54;;;;;;;9.83;3.40;;;;;;;;;;5012706;28;20378;-77
2023/03/12 08:34:20;;;;;;;12.07;3.90;;;;;;;;;;5007738;28;20033;-76
2023/03/12 08:36:47;;;;;;;11.00;3.80;;;;;;;;;;5012111;28;20033;-76
2023/03/12 08:39:13;;;;;;;11.40;3.30;;;;;;;;;;5011910;28;20045;-75
2023/03/12 08:41:41;;;;;;;10.13;4.03;;;;;;;;;;5008227;28;20045;-75
2023/03/12 08:44:07;;;;;;;12.63;4.73;;;;;;;;;;5026161;28;20037;-76
2023/03/12 08:46:33;;;;;;;8.53;4.37;;;;;;;;;;5027854;28;20033;-75
2023/03/12 08:48:59;;;;;;;12.90;5.33;;;;;;;;;;5026804;28;20140;-77
2023/03/12 08:51:25;;;;;;;11.47;4.97;;;;;;;;;;5013396;28;20124;-76
2023/03/12 08:53:51;;;;;;;14.80;6.87;;;;;;;;;;5015087;28;20049;-76
2023/03/12 08:56:20;;;;;;;9.47;5.90;;;;;;;;;;5014133;28;20040;-76
2023/03/12 08:58:46;;;;;;;9.00;5.73;;;;;;;;;;5012601;28;20033;-77
2023/03/12 09:01:12;;;;;;;12.90;5.63;;;;;;;;;;5015849;28;20102;-77
2023/03/12 09:03:41;;;;;;;13.23;6.50;;;;;;;;;;5019729;28;20124;-77
2023/03/12 09:06:12;;;;;;;7.77;4.67;;;;;;;;;;5035058;28;20034;-77
2023/03/12 09:08:38;;;;;;;11.13;5.83;;;;;;;;;;5031788;28;20013;-77
2023/03/12 09:11:04;;;;;;;9.93;5.00;;;;;;;;;;5017728;28;20457;-78
2023/03/12 09:13:30;;;;;;;11.83;5.87;;;;;;;;;;5029066;28;20072;-77
2023/03/12 09:16:00;;;;;;;9.10;5.73;;;;;;;;;;5023569;28;20025;-77
2023/03/12 09:18:26;;;;;;;8.90;5.70;;;;;;;;;;5032682;28;20084;-76
2023/03/12 09:20:52;;;;;;;10.13;5.90;;;;;;;;;;5033736;28;20033;-76
2023/03/12 09:23:20;;;;;;;12.70;6.30;;;;;;;;;;5015792;28;20033;-77
2023/03/12 09:25:49;;;;;;;10.80;6.43;;;;;;;;;;5017948;28;20160;-77
2023/03/12 09:28:15;;;;;;;9.13;6.17;;;;;;;;;;5026008;28;20022;-77
2023/03/12 09:30:43;;;;;;;11.13;6.00;;;;;;;;;;5014503;28;20100;-78
2023/03/12 09:33:10;;;;;;;11.80;6.40;;;;;;;;;;5017935;28;20045;-77
2023/03/12 09:35:36;;;;;;;12.27;6.40;;;;;;;;;;5009133;28;20044;-78
2023/03/12 09:38:02;;;;;;;11.53;6.20;;;;;;;;;;5027096;28;20033;-77
2023/03/12 09:40:35;;;;;;;11.43;6.17;;;;;;;;;;5017734;28;20114;-78
2023/03/12 09:43:06;;;;;;;9.70;6.10;;;;;;;;;;5017978;28;20026;-77
2023/03/12 09:45:36;;;;;;;10.70;6.87;;;;;;;;;;5015468;28;20504;-78
2023/03/12 09:48:03;;;;;;;11.27;6.13;;;;;;;;;;5027866;28;20396;-78
2023/03/12 09:50:32;;;;;;;15.47;9.33;;;;;;;;;;5030963;28;20100;-77
2023/03/12 09:53:04;;;;;;;13.97;8.30;;;;;;;;;;5031748;28;20462;-77
2023/03/12 09:55:50;;;;;;;12.10;7.27;;;;;;;;;;5031939;28;20029;-77
2023/03/12 09:58:26;;;;;;;10.83;7.20;;;;;;;;;;5026805;28;20034;-78
2023/03/12 10:01:00;;;;;;;10.50;7.07;;;;;;;;;;5040177;28;20033;-77
2023/03/12 10:03:42;;;;;;;11.33;7.70;;;;;;;;;;5027028;28;20034;-77
2023/03/12 10:06:11;;;;;;;17.83;8.00;;;;;;;;;;5009039;28;20115;-77
2023/03/12 10:08:56;;;;;;;15.57;8.70;;;;;;;;;;5017004;28;20079;-77
2023/03/12 10:11:21;;;;;;;12.07;8.60;;;;;;;;;;5034072;28;20025;-76
2023/03/12 10:14:05;;;;;;;13.67;9.57;;;;;;;;;;5006442;28;20059;-76
2023/03/12 10:16:37;;;;;;;14.43;8.47;;;;;;;;;;5006430;28;20029;-77
2023/03/12 10:19:06;;;;;;;17.83;9.13;;;;;;;;;;5032724;28;20063;-77
2023/03/12 10:21:51;;;;;;;11.20;7.70;;;;;;;;;;5032600;28;20083;-76
2023/03/12 10:24:17;;;;;;;10.17;8.37;;;;;;;;;;5030102;28;20033;-76
2023/03/12 10:26:45;;;;;;;16.03;9.63;;;;;;;;;;5025536;28;20037;-76
2023/03/12 10:29:12;;;;;;;13.50;9.50;;;;;;;;;;5015862;28;20366;-77
2023/03/12 10:31:57;;;;;;;13.80;9.40;;;;;;;;;;5013712;28;20354;-76
2023/03/12 10:34:25;;;;;;;15.17;10.27;;;;;;;;;;5021345;28;20029;-77
2023/03/12 10:36:51;;;;;;;14.87;10.33;;;;;;;;;;5005449;28;20033;-77
2023/03/12 10:39:19;;;;;;;12.73;10.00;;;;;;;;;;5022289;28;20029;-75
2023/03/12 10:41:46;;;;;;;18.70;11.97;;;;;;;;;;5023860;28;20450;-77
2023/03/12 10:44:20;;;;;;;17.10;10.77;;;;;;;;;;5016806;28;20146;-77
2023/03/12 10:46:52;;;;;;;13.33;9.13;;;;;;;;;;5019572;28;20037;-77
2023/03/12 10:49:21;;;;;;;13.10;10.27;;;;;;;;;;5001198;28;20030;-76
2023/03/12 10:51:55;;;;;;;14.37;9.67;;;;;;;;;;5015854;28;20063;-76
2023/03/12 10:54:43;;;;;;;14.17;11.17;;;;;;;;;;5031279;28;20465;-76
2023/03/12 10:57:10;;;;;;;12.83;9.97;;;;;;;;;;5014580;28;20037;-78
2023/03/12 10:59:43;;;;;;;12.77;9.73;;;;;;;;;;5018456;28;20029;-76
2023/03/12 11:02:28;;;;;;;12.23;9.97;;;;;;;;;;5033224;28;20045;-76
2023/03/12 11:04:54;;;;;;;21.57;14.57;;;;;;;;;;5030626;28;20041;-76
2023/03/12 11:07:36;;;;;;;15.17;10.60;;;;;;;;;;5009370;28;20030;-76
2023/03/12 11:10:11;;;;;;;17.47;11.20;;;;;;;;;;5030277;28;20064;-76
2023/03/12 11:12:38;;;;;;;14.30;11.03;;;;;;;;;;5023092;28;20021;-75
2023/03/12 11:15:19;;;;;;;26.37;11.03;;;;;;;;;;5029082;28;20045;-75
2023/03/12 11:17:45;;;;;;;13.53;9.17;;;;;;;;;;5033984;28;20026;-76
2023/03/12 11:20:18;;;;;;;14.37;10.03;;;;;;;;;;5031985;28;20035;-76
2023/03/12 11:22:44;;;;;;;16.40;10.87;;;;;;;;;;5035983;28;20045;-78
2023/03/12 11:25:20;;;;;;;15.50;9.67;;;;;;;;;;5011287;28;20443;-77
2023/03/12 11:27:49;;;;;;;23.70;10.43;;;;;;;;;;5034672;28;20025;-78
2023/03/12 11:30:16;;;;;;;26.00;11.37;;;;;;;;;;5017433;28;20025;-78
2023/03/12 11:32:50;;;;;;;23.40;9.83;;;;;;;;;;5027932;28;20405;-76
2023/03/12 11:35:17;;;;;;;28.97;10.20;;;;;;;;;;5037585;28;20048;-76
2023/03/12 11:37:43;;;;;;;25.93;10.20;;;;;;;;;;5016491;28;20038;-75
2023/03/12 11:40:16;;;;;;;27.83;11.63;;;;;;;;;;5019365;28;20103;-78
2023/03/12 11:42:59;;;;;;;23.80;9.67;;;;;;;;;;5023849;28;20034;-78
2023/03/12 11:45:25;;;;;;;;;;;;;;;;;;5033793;28;21162;-77
2023/03/12 11:47:54;;;;;;;23.67;8.50;;;;;;;;;;5028870;28;19905;-78
2023/03/12 11:50:27;;;;;;;26.20;9.27;;;;;;;;;;5019307;28;20029;-77
2023/03/12 11:52:53;;;;;;;;;;;;;;;;;;5029683;28;20034;-78
2023/03/12 11:55:29;;;;;;;23.13;9.13;;;;;;;;;;5017335;28;19909;-78
2023/03/12 11:58:22;;;;;;;21.03;8.17;;;;;;;;;;5027054;28;20041;-78
2023/03/12 12:01:09;;;;;;;20.75;7.72;;;;;;;;;;5008122;28;20056;-76
2023/03/12 12:03:58;;;;;;;21.03;8.80;;;;;;;;;;5015507;28;20042;-77
2023/03/12 12:07:13;;;;;;;20.27;7.93;;;;;;;;;;5025891;28;20045;-78
2023/03/12 12:10:01;;;;;;;20.70;7.07;;;;;;;;;;5031674;28;20116;-77
2023/03/12 12:12:44;;;;;;;24.77;6.87;;;;;;;;;;5014166;28;20018;-76
2023/03/12 12:15:25;;;;;;;24.20;6.97;;;;;;;;;;5028703;28;20025;-78
2023/03/12 12:17:54;;;;;;;22.33;6.87;;;;;;;;;;5021051;28;20108;-78
2023/03/12 12:20:48;;;;;;;22.30;7.17;;;;;;;;;;5029630;28;20481;-78
2023/03/12 12:23:29;;;;;;;27.53;6.53;;;;;;;;;;5027793;28;20030;-77
2023/03/12 12:26:06;;;;;;;18.43;7.40;;;;;;;;;;5017409;28;20457;-78
2023/03/12 12:28:52;;;;;;;22.73;6.67;;;;;;;;;;5013699;28;20091;-77
2023/03/12 12:31:27;;;;;;;24.20;7.50;;;;;;;;;;5015556;28;20516;-79
2023/03/12 12:33:53;;;;;;;25.73;5.97;;;;;;;;;;5017246;28;20116;-78
2023/03/12 12:36:19;;;;;;;18.83;5.10;;;;;;;;;;5011818;28;20119;-79
2023/03/12 12:39:14;;;;;;;20.80;5.73;;;;;;;;;;5014866;28;20030;-78
2023/03/12 12:41:52;;;;;;;21.17;5.43;;;;;;;;;;5009752;28;20037;-77
2023/03/12 12:44:21;;;;;;;26.23;6.00;;;;;;;;;;5033874;28;20563;-78
2023/03/12 12:46:49;;;;;;;21.73;6.10;;;;;;;;;;5019567;28;20033;-77
2023/03/12 12:49:22;;;;;;;16.00;5.47;;;;;;;;;;5016728;28;20080;-77
2023/03/12 12:51:50;;;;;;;18.13;5.23;;;;;;;;;;5027177;28;20056;-77
2023/03/12 12:54:19;;;;;;;22.97;4.17;;;;;;;;;;5011712;28;20120;-77
2023/03/12 12:56:51;;;;;;;24.67;5.70;;;;;;;;;;5008317;28;20033;-77
2023/03/12 12:59:20;;;;;;;20.58;4.88;;;;;;;;;;5010239;28;20484;-75
2023/03/12 13:01:47;;;;;;;23.07;5.87;;;;;;;;;;5006505;28;20042;-77
2023/03/12 13:04:15;;;;;;;19.13;5.03;;;;;;;;;;5011072;28;20534;-78
2023/03/12 13:07:02;;;;;;;21.57;3.73;;;;;;;;;;5011114;28;20059;-77
2023/03/12 13:09:36;;;;;;;21.30;4.10;;;;;;;;;;5007991;28;20045;-76
2023/03/12 13:12:06;;;;;;;21.33;4.40;;;;;;;;;;5010613;28;20366;-76
2023/03/12 13:14:37;;;;;;;22.80;4.90;;;;;;;;;;5024331;28;20037;-75
2023/03/12 13:17:08;;;;;;;19.67;5.13;;;;;;;;;;5024807;28;20033;-75
2023/03/12 13:19:38;;;;;;;19.47;4.10;;;;;;;;;;5025255;28;20109;-75
2023/03/12 13:22:04;;;;;;;27.27;4.10;;;;;;;;;;5025608;28;20079;-77
2023/03/12 13:24:33;;;;;;;16.33;4.33;;;;;;;;;;5026293;28;20061;-76
2023/03/12 13:27:14;;;;;;;23.13;4.73;;;;;;;;;;4996153;28;20052;-77
2023/03/12 13:29:41;;;;;;;24.67;4.73;;;;;;;;;;5011269;28;20091;-76
2023/03/12 13:32:30;;;;;;;22.27;5.10;;;;;;;;;;5010942;28;20025;-77
2023/03/12 13:34:56;;;;;;;22.40;4.67;;;;;;;;;;5024074;28;20026;-77
2023/03/12 13:37:47;;;;;;;20.67;4.20;;;;;;;;;;5010323;28;20034;-75
2023/03/12 13:40:32;;;;;;;22.57;4.77;;;;;;;;;;5011505;28;20033;-76
2023/03/12 13:43:01;;;;;;;20.43;4.43;;;;;;;;;;5022718;28;20192;-76
2023/03/12 13:45:30;;;;;;;15.90;4.00;;;;;;;;;;5025591;28;20026;-77
2023/03/12 13:47:58;;;;;;;21.17;4.40;;;;;;;;;;5024096;28;20030;-76
2023/03/12 13:50:24;;;;;;;22.23;4.53;;;;;;;;;;5007584;28;20025;-77
2023/03/12 13:53:05;;;;;;;24.03;5.00;;;;;;;;;;5010522;28;20053;-77
2023/03/12 13:55:33;;;;;;;23.07;4.63;;;;;;;;;;5007332;28;20053;-77
2023/03/12 13:58:05;;;;;;;26.13;5.07;;;;;;;;;;5011553;28;20427;-75
2023/03/12 14:00:40;;;;;;;27.63;5.85;;;;;;;;;;5010432;28;20033;-75
2023/03/12 14:03:14;;;;;;;27.63;5.30;;;;;;;;;;5008077;28;20126;-77
2023/03/12 14:05:59;;;;;;;19.20;4.33;;;;;;;;;;5025389;28;20048;-77
2023/03/12 14:08:43;;;;;;;21.63;4.43;;;;;;;;;;5010642;28;20049;-76
2023/03/12 14:11:09;;;;;;;21.97;4.40;;;;;;;;;;5022345;28;20504;-76
2023/03/12 14:13:54;;;;;;;19.30;4.27;;;;;;;;;;5012525;28;20033;-77
2023/03/12 14:16:23;;;;;;;23.37;4.73;;;;;;;;;;5025141;28;20041;-76
2023/03/12 14:18:50;;;;;;;19.63;3.80;;;;;;;;;;5024902;28;20045;-78
2023/03/12 14:21:17;;;;;;;28.67;4.97;;;;;;;;;;5010797;28;20041;-76
2023/03/12 14:23:50;;;;;;;25.50;4.10;;;;;;;;;;5011148;28;20057;-75
2023/03/12 14:26:20;;;;;;;22.87;4.10;;;;;;;;;;5007081;28;20025;-76
2023/03/12 14:28:47;;;;;;;21.60;4.60;;;;;;;;;;5010462;28;20029;-77
2023/03/12 14:31:14;;;;;;;26.60;5.53;;;;;;;;;;5011964;28;20052;-75
2023/03/12 14:33:48;;;;;;;21.77;4.43;;;;;;;;;;5011641;28;20896;-76
2023/03/12 14:36:17;;;;;;;23.47;4.20;;;;;;;;;;5024856;28;20035;-76
2023/03/12 14:38:44;;;;;;;19.70;4.43;;;;;;;;;;5022269;28;20022;-74
2023/03/12 14:41:19;;;;;;;20.47;4.20;;;;;;;;;;5005991;28;20026;-75
2023/03/12 14:43:45;;;;;;;20.50;4.63;;;;;;;;;;5024904;28;20067;-76
2023/03/12 14:46:19;;;;;;;22.20;6.00;;;;;;;;;;5027681;28;20403;-76
2023/03/12 14:48:48;;;;;;;25.10;4.23;;;;;;;;;;5014595;28;20033;-76